createdAt,value
2024-02-24T00:03:23.028Z,5.56
2024-02-24T00:13:24.092Z,5.06
2024-02-24T00:23:25.000Z,5.38
2024-02-24T00:33:26.228Z,5.06
2024-02-24T00:43:27.121Z,5.06
2024-02-24T00:53:28.028Z,5.25
2024-02-24T01:03:29.250Z,5
2024-02-24T01:13:30.105Z,5
2024-02-24T01:23:31.078Z,4.75
2024-02-24T01:33:32.060Z,5
2024-02-24T01:43:32.963Z,4.94
2024-02-24T01:53:33.881Z,5.06
2024-02-24T02:03:35.256Z,5.06
2024-02-24T02:13:36.097Z,5.13
2024-02-24T02:23:37.018Z,5.19
2024-02-24T02:33:38.426Z,5.06
2024-02-24T02:43:39.500Z,4.94
2024-02-24T02:53:40.371Z,4.63
2024-02-24T03:03:41.815Z,4.5
2024-02-24T03:13:42.653Z,4.25
2024-02-24T03:23:43.583Z,4.44
2024-02-24T03:33:44.938Z,4.38
2024-02-24T03:43:45.857Z,4.44
2024-02-24T03:53:46.747Z,4.69
2024-02-24T04:03:47.661Z,4.38
2024-02-24T04:13:48.576Z,4.5
2024-02-24T04:23:49.493Z,4.88
2024-02-24T04:33:50.455Z,4.94
2024-02-24T04:43:51.335Z,4.88
2024-02-24T04:53:52.223Z,4.69
2024-02-24T05:03:53.567Z,4.63
2024-02-24T05:13:54.442Z,5.25
2024-02-24T05:23:55.402Z,5.31
2024-02-24T05:33:56.770Z,5.31
2024-02-24T05:43:57.798Z,5.31
2024-02-24T05:53:58.749Z,5.38
2024-02-24T06:04:00.140Z,5.44
2024-02-24T06:14:01.031Z,5.38
2024-02-24T06:24:01.978Z,5.38
2024-02-24T06:34:06.052Z,5.31
2024-02-24T06:44:08.988Z,5.13
2024-02-24T06:54:09.896Z,5.13
2024-02-24T07:04:11.217Z,5.19
2024-02-24T07:14:12.055Z,5.25
2024-02-24T07:24:12.982Z,5.5
2024-02-24T07:34:14.388Z,5.69
2024-02-24T07:44:16.966Z,6
2024-02-24T07:54:17.979Z,8.94
2024-02-24T08:04:19.259Z,11.88
2024-02-24T08:14:20.161Z,10.19
2024-02-24T08:24:21.116Z,8
2024-02-24T08:34:22.386Z,7.56
2024-02-24T08:44:23.490Z,7.81
2024-02-24T08:54:24.492Z,8.25
2024-02-24T09:04:25.798Z,7.75
2024-02-24T09:14:26.674Z,7.56
2024-02-24T09:24:27.608Z,7.94
2024-02-24T09:34:28.929Z,8.13
2024-02-24T09:44:29.871Z,7.94
2024-02-24T09:54:30.788Z,8.13
2024-02-24T10:04:32.172Z,8.13
2024-02-24T10:14:33.097Z,8
2024-02-24T10:24:35.094Z,8.38
2024-02-24T10:34:36.301Z,8.69
2024-02-24T10:44:37.316Z,9.06
2024-02-24T10:54:38.216Z,9
2024-02-24T11:04:39.820Z,9.31
2024-02-24T11:14:40.861Z,9.06
2024-02-24T11:24:41.788Z,9.31
2024-02-24T11:34:43.442Z,9.38
2024-02-24T11:44:45.525Z,9.44
2024-02-24T11:54:46.658Z,9.13
2024-02-24T12:04:48.208Z,9.56
2024-02-24T12:14:49.132Z,9.75
2024-02-24T12:24:50.028Z,9.88
2024-02-24T12:34:50.941Z,9.25
2024-02-24T12:44:51.896Z,9.56
2024-02-24T12:54:52.782Z,9.56
2024-02-24T13:04:54.109Z,9.56
2024-02-24T13:14:55.137Z,9.56
2024-02-24T13:24:56.089Z,9.44
2024-02-24T13:34:57.414Z,9.63
2024-02-24T13:44:58.441Z,9.75
2024-02-24T13:54:59.386Z,10.25
2024-02-24T14:05:00.320Z,9.63
2024-02-24T14:15:01.733Z,10
2024-02-24T14:25:02.823Z,10.13
2024-02-24T14:35:03.712Z,9.81
2024-02-24T14:45:05.126Z,9.56
2024-02-24T14:55:06.009Z,9.94
2024-02-24T15:05:06.914Z,9.69
2024-02-24T15:15:08.218Z,9.69
2024-02-24T15:25:09.162Z,9.81
2024-02-24T15:35:10.057Z,9.69
2024-02-24T15:45:11.302Z,9.88
2024-02-24T15:55:12.197Z,9.88
2024-02-24T16:05:13.116Z,9.56
2024-02-24T16:15:14.345Z,9.44
2024-02-24T16:25:15.393Z,9.19
2024-02-24T16:35:16.312Z,8.75
2024-02-24T16:45:17.695Z,8.44
2024-02-24T16:55:18.605Z,8.19
2024-02-24T17:05:19.529Z,8
2024-02-24T17:15:20.924Z,7.81
2024-02-24T17:25:21.828Z,7.63
2024-02-24T17:35:22.864Z,7.19
2024-02-24T17:45:24.446Z,7.06
2024-02-24T17:55:25.319Z,6.75
2024-02-24T18:05:26.316Z,6.38
2024-02-24T18:15:27.715Z,6.25
2024-02-24T18:25:28.683Z,6.31
2024-02-24T18:35:29.638Z,6.25
2024-02-24T18:45:31.045Z,6.25
2024-02-24T18:55:31.939Z,6.13
2024-02-24T19:05:32.932Z,5.75
2024-02-24T19:15:34.351Z,5.5
2024-02-24T19:25:35.262Z,5.63
2024-02-24T19:35:36.164Z,5.63
2024-02-24T19:45:37.702Z,5.56
2024-02-24T19:55:38.636Z,5.25
2024-02-24T20:05:39.759Z,5.13
2024-02-24T20:15:41.285Z,4.94
2024-02-24T20:25:42.214Z,5.06
2024-02-24T20:35:43.124Z,5.13
2024-02-24T20:45:50.075Z,4.81
2024-02-24T20:55:50.977Z,4.5
2024-02-24T21:05:52.318Z,4.44
2024-02-24T21:15:53.226Z,4.63
2024-02-24T21:25:54.089Z,5.13
2024-02-24T21:35:55.375Z,5.31
2024-02-24T21:45:56.264Z,5.19
2024-02-24T21:55:57.204Z,5.06
2024-02-24T22:05:58.546Z,4.94
2024-02-24T22:15:59.432Z,4.81
2024-02-24T22:26:00.331Z,4.88
2024-02-24T22:36:01.909Z,4.81
2024-02-24T22:46:02.829Z,4.69
2024-02-24T22:56:03.706Z,4.44
2024-02-24T23:06:05.258Z,4.31
2024-02-24T23:16:06.301Z,4.19
2024-02-24T23:26:07.162Z,3.94
2024-02-24T23:36:08.561Z,3.69
2024-02-24T23:46:09.441Z,3.75
2024-02-24T23:56:10.407Z,3.56
